createdAt,value
2019-01-18T00:02:18.840Z,4.80
2019-01-18T00:06:22.552Z,8.80
2019-01-18T00:10:25.845Z,4.20
2019-01-18T00:14:29.118Z,2.70
2019-01-18T00:18:32.414Z,1.63
2019-01-18T00:22:35.702Z,11.23
2019-01-18T00:26:39.012Z,5.77
2019-01-18T00:30:42.278Z,8.87
2019-01-18T00:34:45.599Z,3.93
2019-01-18T00:38:48.874Z,4.70
2019-01-18T00:42:52.262Z,6.07
2019-01-18T00:46:55.541Z,4.90
2019-01-18T00:50:58.838Z,4.47
2019-01-18T00:55:02.126Z,2.17
2019-01-18T00:59:05.438Z,9.10
2019-01-18T01:03:10.086Z,1.70
2019-01-18T01:07:13.462Z,2.40
2019-01-18T01:11:17.258Z,4.60
2019-01-18T01:15:21.834Z,4.03
2019-01-18T01:19:25.622Z,3.40
2019-01-18T01:23:29.381Z,2.10
2019-01-18T01:27:32.670Z,7.77
2019-01-18T01:31:36.845Z,1.53
2019-01-18T01:35:40.685Z,5.57
2019-01-18T01:39:44.034Z,2.27
2019-01-18T01:43:47.318Z,5.53
2019-01-18T01:47:50.626Z,7.93
2019-01-18T01:51:53.910Z,18.23
2019-01-18T01:55:57.669Z,5.67
2019-01-18T02:00:01.395Z,8.03
2019-01-18T02:04:06.132Z,4.33
2019-01-18T02:08:09.914Z,6.20
2019-01-18T02:12:13.210Z,5.83
2019-01-18T02:16:16.527Z,9.27
2019-01-18T02:20:20.259Z,5.30
2019-01-18T02:24:23.543Z,5.50
2019-01-18T02:28:27.278Z,2.17
2019-01-18T02:32:30.792Z,2.90
2019-01-18T02:36:34.599Z,12.17
2019-01-18T02:40:37.878Z,2.13
2019-01-18T02:44:41.952Z,3.27
2019-01-18T02:48:45.298Z,9.17
2019-01-18T02:52:48.603Z,6.63
2019-01-18T02:56:51.882Z,3.70
2019-01-18T03:00:55.182Z,9.43
2019-01-18T03:04:59.362Z,5.70
2019-01-18T03:09:04.442Z,2.73
2019-01-18T03:13:08.199Z,7.27
2019-01-18T03:17:11.567Z,6.67
2019-01-18T03:21:15.347Z,6.03
2019-01-18T03:25:24.746Z,17.47
2019-01-18T03:29:28.096Z,12.60
2019-01-18T03:33:32.059Z,5.67
2019-01-18T03:37:35.833Z,12.83
2019-01-18T03:41:39.662Z,8.30
2019-01-18T03:45:43.100Z,6.00
2019-01-18T03:49:46.932Z,7.40
2019-01-18T03:53:50.263Z,15.43
2019-01-18T03:57:53.746Z,4.50
2019-01-18T04:01:57.092Z,15.10
2019-01-18T04:06:01.683Z,5.20
2019-01-18T04:10:07.381Z,7.23
2019-01-18T04:14:11.246Z,6.80
2019-01-18T04:18:14.578Z,10.77
2019-01-18T04:22:18.430Z,5.00
2019-01-18T04:26:22.428Z,6.87
2019-01-18T04:30:33.029Z,8.10
2019-01-18T04:34:30.857Z,7.17
2019-01-18T04:38:34.213Z,6.67
2019-01-18T04:42:37.546Z,4.63
2019-01-18T04:46:41.006Z,8.90
2019-01-18T04:50:45.641Z,6.27
2019-01-18T04:54:49.839Z,7.60
2019-01-18T04:58:53.608Z,6.23
2019-01-18T05:02:57.816Z,10.43
2019-01-18T05:07:01.199Z,14.80
2019-01-18T05:11:04.571Z,7.60
2019-01-18T05:15:09.022Z,3.63
2019-01-18T05:19:12.814Z,9.47
2019-01-18T05:23:16.206Z,4.80
2019-01-18T05:27:19.587Z,4.93
2019-01-18T05:31:22.999Z,8.77
2019-01-18T05:35:27.358Z,7.43
2019-01-18T05:39:31.142Z,6.60
2019-01-18T05:43:34.615Z,14.40
2019-01-18T05:47:37.994Z,5.50
2019-01-18T05:51:41.353Z,3.40
2019-01-18T05:55:44.681Z,7.63
2019-01-18T05:59:48.066Z,7.37
2019-01-18T06:03:51.389Z,6.70
2019-01-18T06:07:56.430Z,14.83
2019-01-18T06:12:00.311Z,11.20
2019-01-18T06:16:03.788Z,8.50
2019-01-18T06:20:08.406Z,6.47
2019-01-18T06:24:11.756Z,4.47
2019-01-18T06:28:15.598Z,12.73
2019-01-18T06:32:19.047Z,5.70
2019-01-18T06:36:22.376Z,12.80
2019-01-18T06:40:25.750Z,9.27
2019-01-18T06:44:29.081Z,7.13
2019-01-18T06:48:33.216Z,5.00
2019-01-18T06:52:36.556Z,6.90
2019-01-18T06:56:40.364Z,5.67
2019-01-18T07:00:43.771Z,9.43
2019-01-18T07:04:47.644Z,5.10
2019-01-18T07:08:51.538Z,6.83
2019-01-18T07:12:54.922Z,5.50
2019-01-18T07:16:58.259Z,4.10
2019-01-18T07:21:02.151Z,5.53
2019-01-18T07:25:06.515Z,9.33
2019-01-18T07:29:10.118Z,10.00
2019-01-18T07:33:15.756Z,5.57
2019-01-18T07:37:19.298Z,10.00
2019-01-18T07:41:23.314Z,5.20
2019-01-18T07:45:28.523Z,7.77
2019-01-18T07:49:31.864Z,7.60
2019-01-18T07:53:35.231Z,3.83
2019-01-18T07:57:38.652Z,6.50
2019-01-18T08:01:42.023Z,7.43
2019-01-18T08:05:45.710Z,9.07
2019-01-18T08:09:50.435Z,5.03
2019-01-18T08:13:53.936Z,10.53
2019-01-18T08:17:57.400Z,7.60
2019-01-18T08:22:01.029Z,12.00
2019-01-18T08:26:04.958Z,5.90
2019-01-18T08:30:10.449Z,17.17
2019-01-18T08:34:13.864Z,4.90
2019-01-18T08:38:18.506Z,9.27
2019-01-18T08:42:22.019Z,5.60
2019-01-18T08:46:25.866Z,5.73
2019-01-18T08:50:29.339Z,3.83
2019-01-18T08:54:32.701Z,9.17
2019-01-18T08:58:36.696Z,7.87
2019-01-18T09:02:40.081Z,6.20
2019-01-18T09:06:43.445Z,5.37
2019-01-18T09:10:47.765Z,7.80
2019-01-18T09:14:51.204Z,5.87
2019-01-18T09:18:55.217Z,11.67
2019-01-18T09:22:59.654Z,6.50
2019-01-18T09:27:03.030Z,5.13
2019-01-18T09:31:06.550Z,15.70
2019-01-18T09:35:13.449Z,5.90
2019-01-18T09:39:16.915Z,3.70
2019-01-18T09:43:20.257Z,7.87
2019-01-18T09:47:24.360Z,6.83
2019-01-18T09:51:29.323Z,3.57
2019-01-18T09:55:34.049Z,3.93
2019-01-18T09:59:37.589Z,3.70
2019-01-18T10:03:41.442Z,6.90
2019-01-18T10:07:45.430Z,4.73
2019-01-18T10:11:48.960Z,7.27
2019-01-18T10:15:53.584Z,9.60
2019-01-18T10:19:57.088Z,2.60
2019-01-18T10:24:00.544Z,2.90
2019-01-18T10:28:04.357Z,3.90
2019-01-18T10:32:08.161Z,3.70
2019-01-18T10:36:11.537Z,5.23
2019-01-18T10:40:15.095Z,3.87
2019-01-18T10:44:18.902Z,3.33
2019-01-18T10:48:22.267Z,3.07
2019-01-18T10:52:25.843Z,2.80
2019-01-18T10:56:29.287Z,3.43
2019-01-18T11:00:34.531Z,2.90
2019-01-18T11:04:38.002Z,2.27
2019-01-18T11:08:41.403Z,3.97
2019-01-18T11:12:44.910Z,4.90
2019-01-18T11:16:48.362Z,3.00
2019-01-18T11:20:56.537Z,2.70
2019-01-18T11:25:00.985Z,6.97
2019-01-18T11:29:05.138Z,7.40
2019-01-18T11:33:09.154Z,6.80
2019-01-18T11:37:12.611Z,4.20
2019-01-18T11:41:16.055Z,4.00
2019-01-18T11:45:19.646Z,5.93
2019-01-18T11:49:23.520Z,3.70
2019-01-18T11:53:26.970Z,5.63
2019-01-18T11:57:30.340Z,5.47
2019-01-18T12:01:34.316Z,2.97
2019-01-18T12:05:37.646Z,3.10
2019-01-18T12:09:41.108Z,4.30
2019-01-18T12:13:45.783Z,3.07
2019-01-18T12:17:49.714Z,3.50
2019-01-18T12:21:53.642Z,7.00
2019-01-18T12:25:56.956Z,4.43
2019-01-18T12:30:00.486Z,8.77
2019-01-18T12:34:03.882Z,3.97
2019-01-18T12:38:08.166Z,9.03
2019-01-18T12:42:12.099Z,4.53
2019-01-18T12:46:15.915Z,3.80
2019-01-18T12:50:23.783Z,6.30
2019-01-18T12:54:27.294Z,7.00
2019-01-18T12:58:31.370Z,6.40
2019-01-18T13:02:35.441Z,5.40
2019-01-18T13:06:39.582Z,3.13
2019-01-18T13:10:42.985Z,6.07
2019-01-18T13:14:46.502Z,5.53
2019-01-18T13:18:51.130Z,4.17
2019-01-18T13:22:54.571Z,5.87
2019-01-18T13:26:58.491Z,3.90
2019-01-18T13:31:02.430Z,7.97
2019-01-18T13:35:07.447Z,4.90
2019-01-18T13:39:10.997Z,3.60
2019-01-18T13:43:14.855Z,4.90
2019-01-18T13:47:20.014Z,5.80
2019-01-18T13:51:23.536Z,6.53
2019-01-18T13:55:27.027Z,8.30
2019-01-18T13:59:30.383Z,5.83
2019-01-18T14:03:33.726Z,6.67
2019-01-18T14:07:38.419Z,11.53
2019-01-18T14:11:42.175Z,7.20
2019-01-18T14:15:46.860Z,8.53
2019-01-18T14:19:50.726Z,6.43
2019-01-18T14:23:54.974Z,6.20
2019-01-18T14:27:58.394Z,8.10
2019-01-18T14:32:01.814Z,13.07
2019-01-18T14:36:05.821Z,7.93
2019-01-18T14:40:09.671Z,8.43
2019-01-18T14:44:12.990Z,6.50
2019-01-18T14:48:16.318Z,4.77
2019-01-18T14:52:19.698Z,9.70
2019-01-18T14:56:23.157Z,8.30
2019-01-18T15:00:28.929Z,4.13
2019-01-18T15:04:32.828Z,9.83
2019-01-18T15:08:36.620Z,7.70
2019-01-18T15:12:40.099Z,3.77
2019-01-18T15:16:44.898Z,10.27
2019-01-18T15:20:48.278Z,7.20
2019-01-18T15:24:52.004Z,6.13
2019-01-18T15:28:55.361Z,12.13
2019-01-18T15:32:58.795Z,8.37
2019-01-18T15:37:02.150Z,6.10
2019-01-18T15:41:05.596Z,8.07
2019-01-18T15:45:09.366Z,9.30
2019-01-18T15:49:13.079Z,4.57
2019-01-18T15:53:16.962Z,8.73
2019-01-18T15:57:20.482Z,10.27
2019-01-18T16:01:23.914Z,4.50
2019-01-18T16:05:27.770Z,9.17
2019-01-18T16:09:31.058Z,8.27
2019-01-18T16:13:34.414Z,11.50
2019-01-18T16:17:37.803Z,9.90
2019-01-18T16:21:41.074Z,7.00
2019-01-18T16:25:44.446Z,9.73
2019-01-18T16:29:48.163Z,12.93
2019-01-18T16:33:51.454Z,8.23
2019-01-18T16:37:55.637Z,7.33
2019-01-18T16:41:59.874Z,9.40
2019-01-18T16:46:03.650Z,7.37
2019-01-18T16:50:07.927Z,10.03
2019-01-18T16:54:11.198Z,5.77
2019-01-18T16:58:14.490Z,11.37
2019-01-18T17:02:17.758Z,6.87
2019-01-18T17:06:21.495Z,8.30
2019-01-18T17:10:24.852Z,10.57
2019-01-18T17:14:28.574Z,7.23
2019-01-18T17:18:33.182Z,7.30
2019-01-18T17:22:36.466Z,5.97
2019-01-18T17:26:39.834Z,10.80
2019-01-18T17:30:43.563Z,6.63
2019-01-18T17:34:46.850Z,8.03
2019-01-18T17:39:05.746Z,15.33
2019-01-18T17:43:24.686Z,9.67
2019-01-18T17:47:36.241Z,8.93
2019-01-18T17:52:30.472Z,6.13
2019-01-18T17:57:04.563Z,13.33
2019-01-18T18:01:20.270Z,6.90
2019-01-18T18:05:44.576Z,10.80
2019-01-18T18:10:07.165Z,9.70
2019-01-18T18:14:16.398Z,10.70
2019-01-18T18:18:26.474Z,11.13
2019-01-18T18:22:47.747Z,7.80
2019-01-18T18:26:59.175Z,10.57
2019-01-18T18:31:10.063Z,8.23
2019-01-18T18:35:54.455Z,11.13
2019-01-18T18:40:57.936Z,20.17
2019-01-18T18:45:06.565Z,11.37
2019-01-18T18:49:13.367Z,8.70
2019-01-18T18:53:33.480Z,9.40
2019-01-18T18:58:19.234Z,12.00
2019-01-18T19:02:29.338Z,11.37
2019-01-18T19:07:18.335Z,14.90
2019-01-18T19:11:27.254Z,8.73
2019-01-18T19:15:37.994Z,11.53
2019-01-18T19:20:08.048Z,10.13
2019-01-18T19:24:15.467Z,9.03
2019-01-18T19:28:29.822Z,11.83
2019-01-18T19:32:52.566Z,13.07
2019-01-18T19:37:21.120Z,8.63
2019-01-18T19:42:02.036Z,8.63
2019-01-18T19:46:09.768Z,10.00
2019-01-18T19:50:48.431Z,10.53
2019-01-18T19:54:56.084Z,8.07
2019-01-18T19:59:36.252Z,11.07
2019-01-18T20:04:01.823Z,11.17
2019-01-18T20:08:30.537Z,10.83
2019-01-18T20:13:24.056Z,9.07
2019-01-18T20:17:45.269Z,11.13
2019-01-18T20:22:20.855Z,8.33
2019-01-18T20:26:41.565Z,8.63
2019-01-18T20:30:57.309Z,13.20
2019-01-18T20:35:21.758Z,10.17
2019-01-18T20:39:43.902Z,9.40
2019-01-18T20:44:05.933Z,12.00
2019-01-18T20:48:28.821Z,26.60
2019-01-18T20:53:03.996Z,18.23
2019-01-18T20:57:30.812Z,22.30
2019-01-18T21:02:17.625Z,19.30
2019-01-18T21:06:26.970Z,14.63
2019-01-18T21:10:33.555Z,12.13
2019-01-18T21:14:42.119Z,14.23
2019-01-18T21:19:16.904Z,12.70
2019-01-18T21:23:31.930Z,14.90
2019-01-18T21:27:49.673Z,12.60
2019-01-18T21:32:17.929Z,15.83
2019-01-18T21:36:41.028Z,16.70
2019-01-18T21:41:16.179Z,15.00
2019-01-18T21:45:41.616Z,15.77
2019-01-18T21:49:56.954Z,20.10
2019-01-18T21:54:07.208Z,15.30
2019-01-18T21:58:33.496Z,17.00
2019-01-18T22:02:56.188Z,20.43
2019-01-18T22:07:16.367Z,16.63
2019-01-18T22:11:32.911Z,17.37
2019-01-18T22:15:55.507Z,14.40
2019-01-18T22:20:06.634Z,17.23
2019-01-18T22:25:06.924Z,19.10
2019-01-18T22:29:48.906Z,17.97
2019-01-18T22:34:02.434Z,26.93
2019-01-18T22:38:23.689Z,28.83
2019-01-18T22:42:46.676Z,20.50
2019-01-18T22:47:00.547Z,20.13
2019-01-18T22:51:29.241Z,21.20
2019-01-18T22:55:38.992Z,23.13
2019-01-18T23:00:11.908Z,23.93
2019-01-18T23:04:37.465Z,26.77
2019-01-18T23:09:18.579Z,24.83
2019-01-18T23:13:26.521Z,31.23
2019-01-18T23:17:51.042Z,25.00
2019-01-18T23:22:28.685Z,26.53
2019-01-18T23:26:54.032Z,29.17
2019-01-18T23:31:01.764Z,33.40
2019-01-18T23:35:43.812Z,28.67
2019-01-18T23:40:29.502Z,39.33
2019-01-18T23:44:50.610Z,33.40
2019-01-18T23:49:25.406Z,34.37
2019-01-18T23:53:45.555Z,38.50
2019-01-18T23:58:06.785Z,38.17
